x

Diamond Shoals (41025) Wave Buoy

4:50am - Tue 30th Aug 2016 All times are EDT. -4 hours from GMT.

  • Sig Wave height 6.6ft
  • Swell Direction
  • Peak Period 11s
  • Average Period 6s
  • Wind
    25mph, 31mph gusts
  • Sea Temp 84°f
  • 空気 Temp 80°f
  • Sea Pressure 1014.6mb
  • Diamond Shoals
  • Diamond Shoals

More Historic Weather Station data

Upgrade to MSW Pro to gain access to the past 30 days of data for over 8000 Wavebouys and Weather Stations around the globe.

Join Pro

Comparision Forecast

View Surf forecast
   
Tue 08/30 4:50am 6.5ft 11s 6s 25 31 mph 1014.6mb 84f 80f
3:50am 6ft 12s 6s 22 27 mph 1014.6mb 84f 83f
2:50am 7ft 12s 7s 18 20 mph 1014.8mb 84f 83f
1:50am 6ft 12s 6s 18 20 mph 1015.4mb 84f 83f
12:50am 6ft 13s 6s 16 18 mph 1016mb 84f 83f
Mon 08/29 11:50pm 6ft 13s 6s 16 18 mph 1016.6mb 84f 83f
10:50pm 6ft 13s 6s 18 22 mph 1016.6mb 84f 82f
9:50pm 5.5ft 8s 6s 20 22 mph 1016.6mb 84f 83f
8:50pm 6.5ft 13s 6s 20 25 mph 1016.2mb 84f 83f
7:50pm 5.5ft 12s 6s 22 27 mph 1015.9mb 84f 83f
6:50pm 6ft 12s 6s 20 22 mph 1016.4mb 84f 83f
5:50pm 6ft 8s 6s 25 31 mph 1016.3mb 84f 80f
4:50pm 6ft 13s 6s 22 25 mph 1016.5mb 84f 82f
3:50pm 6ft 8s 6s 22 29 mph 1016.3mb 84f 82f
2:50pm 6ft 8s 6s 18 20 mph 1017.1mb 84f 83f
1:50pm 6ft 8s 6s 20 25 mph 1017.3mb 84f 82f
12:50pm 6ft 9s 6s 18 22 mph 1017.4mb 84f 83f
11:50am 6ft 9s 6s 18 20 mph 1017.7mb 84f 83f
10:50am 6ft 9s 7s 18 20 mph 1018.2mb 84f 83f
9:50am 6ft 8s 7s 18 20 mph 1018mb 84f 83f
8:50am 6.5ft 9s 7s 16 18 mph 1017.9mb 84f 83f
7:50am 6.5ft 9s 7s 16 20 mph 1017.7mb 84f 83f
6:50am 6.5ft 9s 7s 13 18 mph 1017.4mb 84f 83f
5:50am 6ft 9s 7s 11 16 mph 1017.4mb 84f 83f
4:50am 5.5ft 9s 7s 13 16 mph 1017.5mb 84f 82f
3:50am 5ft 8s 6s 13 16 mph 1017.7mb 84f 83f
2:50am 5ft 14s 6s 16 18 mph 1017.9mb 84f 82f
1:50am 4.5ft 14s 6s 16 18 mph 1018.1mb 84f 82f
12:50am 4ft 15s 7s 13 18 mph 1018.2mb 84f 83f
Sun 08/28 11:50pm 3.5ft 15s 6s 9 11 mph 1018.4mb 84f 83f
10:50pm 3.5ft 15s 6s 11 13 mph 1018.6mb 84f 83f
9:50pm 3.5ft 15s 6s 7 9 mph 1018.6mb 85f 82f
8:50pm 3.5ft 15s 6s 2 13 mph 1018.9mb 84f 81f
7:50pm 3ft 15s 6s 16 18 mph 1018.4mb 85f 82f
6:50pm 3ft 15s 6s 11
mph
1018.4mb 85f 83f
5:50pm 3.5ft 15s 5s 9 11 mph 1018.2mb 85f 83f
4:50pm 3ft 15s 5s 11 13 mph 1018.2mb 85f 84f
3:50pm 3ft 8s 5s 11 13 mph 1018.8mb 85f 84f
2:50pm 2.5ft 8s 5s 11 16 mph 1019.4mb 85f 83f
1:50pm 2.5ft 8s 5s 11 13 mph 1019.9mb 85f 84f
12:50pm 2.5ft 8s 5s 11 13 mph 1020.4mb 85f 84f
11:50am 2.5ft 8s 5s 11 13 mph 1020.6mb 85f 84f
10:50am 2.5ft 8s 5s 9 11 mph 1020.4mb 85f 84f
9:50am 2.5ft 8s 5s 9 11 mph 1019.9mb 85f 84f
8:50am 3ft 8s 6s 9 11 mph 1019.5mb 85f 83f
7:50am 3ft 8s 6s 9 11 mph 1019.4mb 84f 83f
6:50am 3ft 8s 6s 4 7 mph 1019.2mb 84f 82f
5:50am 3.5ft 9s 6s 7
mph
1018.8mb 84f 82f
4:50am 3.5ft 9s 6s 7
mph
1018.6mb 84f 82f
3:50am 2.5ft 8s 6s 4 7 mph 1018.8mb 84f 80f
2:50am 3ft 9s 6s 2 4 mph 1019.4mb 84f 76f
1:50am 3ft 9s 6s 13 18 mph 1019.5mb 84f 77f
12:50am 3ft 9s 6s 7
mph
1019.6mb 84f 81f
Sat 08/27 11:50pm 3ft 9s 6s 2 4 mph 1019.7mb 85f 80f
10:50pm 3ft 9s 6s 9
mph
1019.9mb 84f 80f
9:50pm 2.5ft 8s 6s 9
mph
1019.1mb 85f 83f
8:50pm 2.5ft 9s 6s 9 11 mph 1018.5mb 85f 83f
7:50pm 2.5ft 9s 6s 9 11 mph 1018mb 85f 83f
6:50pm 2.5ft 9s 6s 9 11 mph 1017.9mb 85f 83f
5:50pm 3ft 9s 7s 9 11 mph 1018.1mb 85f 83f
4:50pm 3ft 8s 7s 7 9 mph 1018.5mb 85f 83f
2:50pm 2.5ft 10s 8s 7 9 mph 1019mb 85f 83f
1:50pm 3ft 10s 8s 7 9 mph 1019.2mb 85f 82f
12:50pm 2.5ft 9s 7s 7 9 mph 1019.4mb 85f 82f
11:50am 2.5ft 10s 8s 7 9 mph 1019.7mb 85f 82f
10:50am 2.5ft 10s 7s 7
mph
1019.7mb 85f 82f
9:50am 2.5ft 10s 7s 7 9 mph 1019.9mb 85f 82f
8:50am 2.5ft 11s 7s 9 11 mph 1019.5mb 85f 82f
7:50am 2.5ft 10s 7s 7 11 mph 1019.5mb 85f 82f
6:50am 2.5ft 11s 7s 4 7 mph 1019.2mb 85f 82f
5:50am 2.5ft 10s 7s 4 7 mph 1019.1mb 85f 82f
4:50am 2.5ft 10s 7s 4 7 mph 1018.7mb 85f 82f
3:50am 2.5ft 8s 6s 4 9 mph 1018.7mb 85f 81f
2:50am 2ft 10s 7s 7
mph
1018.8mb 85f 81f
1:50am 2ft 8s 6s 7 9 mph 1018.8mb 85f 82f
12:50am 2.5ft 7s 7s 7 9 mph 1018.6mb 85f 82f
Fri 08/26 11:50pm 2ft 8s 7s 7 9 mph 1018.8mb 85f 82f
10:50pm 2ft 7s 6s 7
mph
1018.7mb 85f 82f
9:50pm 2.5ft 8s 7s 4 7 mph 1018.7mb 85f 82f
8:50pm 2ft 8s 6s 7 9 mph 1018.2mb 85f 82f
7:50pm 2ft 8s 6s 4 7 mph 1017.9mb 86f 82f
6:50pm 2.5ft 8s 6s 2 4 mph 1017.9mb 87f 83f
5:50pm 2.5ft 8s 6s  -  2 mph 1018.1mb 87f 85f
4:50pm 2.5ft 8s 6s  -  2 mph 1018.1mb 87f 83f
3:50pm 2.5ft 8s 7s  -  2 mph 1018.2mb 87f 83f
2:50pm 2.5ft 7s 6s  -  2 mph 1018.8mb 87f 84f
1:50pm 2.5ft 8s 6s 2 4 mph 1019.4mb 86f 82f
12:50pm 2.5ft 8s 6s  -  2 mph 1019.6mb 85f 82f
11:50am 2.5ft 8s 6s 2 4 mph 1020.1mb 85f 81f
10:50am 2.5ft 8s 6s 4 9 mph 1019.9mb 85f 81f
9:50am 2.5ft 8s 6s 4 7 mph 1019.9mb 84f 82f